KLM1708 ELLX-EHAM
Flight info
| Callsign | KLM1708 |
|---|---|
| Flight time | 0h 44m |
| Altitude | 24000 |
| Route | LNO N852 TERLA L608 BUB Y28 HELEN |
| Aircraft | E75L/M-SDE3GILORVW/S |
Departure
| Time | 2026-05-06 08:56 |
|---|---|
| Airport | Luxembourg-Findel International Airport (ELLX) |
Arrival
| Time | 2026-05-06 09:40 |
|---|---|
| Airport | Amsterdam Airport Schiphol (EHAM) |
| Time | Latitude | Longitude | Altitude | Speed | Heading |
|---|---|---|---|---|---|
| 2026-05-06 08:37 | 49.63219 | 6.21736 | 1212 ft | 0 kts | 47° |
| 2026-05-06 08:51 | 49.63221 | 6.21739 | 1212 ft | 1 kts | 55° |
| 2026-05-06 08:51 | 49.63227 | 6.21758 | 1212 ft | 3 kts | 62° |
| 2026-05-06 08:51 | 49.63241 | 6.21804 | 1212 ft | 4 kts | 80° |
| 2026-05-06 08:52 | 49.63214 | 6.21864 | 1210 ft | 10 kts | 148° |
| 2026-05-06 08:52 | 49.63172 | 6.21953 | 1209 ft | 10 kts | 67° |
| 2026-05-06 08:52 | 49.63203 | 6.22054 | 1211 ft | 11 kts | 63° |
| 2026-05-06 08:52 | 49.63242 | 6.22171 | 1210 ft | 14 kts | 65° |
| 2026-05-06 08:53 | 49.63285 | 6.22316 | 1209 ft | 16 kts | 65° |
| 2026-05-06 08:53 | 49.63337 | 6.22483 | 1207 ft | 19 kts | 62° |
| 2026-05-06 08:53 | 49.63405 | 6.22669 | 1208 ft | 20 kts | 60° |
| 2026-05-06 08:53 | 49.63475 | 6.22856 | 1210 ft | 20 kts | 60° |
| 2026-05-06 08:54 | 49.63541 | 6.23036 | 1216 ft | 19 kts | 60° |
| 2026-05-06 08:54 | 49.63607 | 6.23211 | 1218 ft | 19 kts | 59° |
| 2026-05-06 08:54 | 49.63664 | 6.23384 | 1219 ft | 14 kts | 81° |
| 2026-05-06 08:54 | 49.63616 | 6.23472 | 1219 ft | 11 kts | 149° |
| 2026-05-06 08:55 | 49.63552 | 6.23528 | 1222 ft | 8 kts | 162° |
| 2026-05-06 08:55 | 49.63515 | 6.23493 | 1222 ft | 10 kts | 235° |
| 2026-05-06 08:55 | 49.63463 | 6.23357 | 1219 ft | 33 kts | 240° |
| 2026-05-06 08:55 | 49.63199 | 6.22650 | 1206 ft | 117 kts | 240° |
| 2026-05-06 08:56 | 49.62669 | 6.21262 | 1404 ft | 171 kts | 242° |
| 2026-05-06 08:56 | 49.62014 | 6.19633 | 2284 ft | 189 kts | 239° |
| 2026-05-06 08:56 | 49.61292 | 6.17783 | 3151 ft | 216 kts | 238° |
| 2026-05-06 08:56 | 49.60565 | 6.15867 | 3771 ft | 193 kts | 240° |
| 2026-05-06 08:57 | 49.59930 | 6.14014 | 4364 ft | 199 kts | 241° |
| 2026-05-06 08:57 | 49.59264 | 6.12113 | 5046 ft | 209 kts | 240° |
| 2026-05-06 08:57 | 49.58515 | 6.10057 | 5666 ft | 230 kts | 239° |
| 2026-05-06 08:57 | 49.57683 | 6.07819 | 6197 ft | 252 kts | 239° |
| 2026-05-06 08:58 | 49.56834 | 6.05391 | 6838 ft | 266 kts | 248° |
| 2026-05-06 08:58 | 49.56625 | 6.02563 | 7687 ft | 272 kts | 277° |
| 2026-05-06 08:58 | 49.57321 | 5.99844 | 8631 ft | 276 kts | 302° |
| 2026-05-06 08:58 | 49.58695 | 5.97760 | 9540 ft | 283 kts | 326° |
| 2026-05-06 08:59 | 49.60557 | 5.96692 | 10271 ft | 295 kts | 348° |
| 2026-05-06 08:59 | 49.62678 | 5.96483 | 10632 ft | 316 kts | 359° |
| 2026-05-06 08:59 | 49.64949 | 5.96593 | 11030 ft | 335 kts | 1° |
| 2026-05-06 08:59 | 49.67332 | 5.96744 | 11544 ft | 348 kts | 0° |
| 2026-05-06 09:00 | 49.69771 | 5.96869 | 12339 ft | 353 kts | 0° |
| 2026-05-06 09:00 | 49.72242 | 5.96959 | 13175 ft | 358 kts | 359° |
| 2026-05-06 09:00 | 49.74746 | 5.97016 | 14000 ft | 363 kts | 359° |
| 2026-05-06 09:00 | 49.77286 | 5.97072 | 14812 ft | 368 kts | 359° |
| 2026-05-06 09:01 | 49.79866 | 5.97166 | 15619 ft | 373 kts | 0° |
| 2026-05-06 09:01 | 49.82437 | 5.97292 | 16390 ft | 378 kts | 1° |
| 2026-05-06 09:01 | 49.85080 | 5.97462 | 17173 ft | 382 kts | 1° |
| 2026-05-06 09:01 | 49.87770 | 5.97674 | 17974 ft | 387 kts | 2° |
| 2026-05-06 09:02 | 49.90471 | 5.97940 | 18638 ft | 391 kts | 3° |
| 2026-05-06 09:02 | 49.93197 | 5.98252 | 19311 ft | 395 kts | 3° |
| 2026-05-06 09:02 | 49.95954 | 5.98613 | 19959 ft | 398 kts | 4° |
| 2026-05-06 09:02 | 49.98729 | 5.99010 | 20577 ft | 402 kts | 4° |
| 2026-05-06 09:03 | 50.01521 | 5.99446 | 21180 ft | 405 kts | 5° |
| 2026-05-06 09:03 | 50.04342 | 5.99914 | 21792 ft | 408 kts | 5° |
| 2026-05-06 09:03 | 50.07178 | 6.00345 | 22344 ft | 411 kts | 1° |
| 2026-05-06 09:03 | 50.10007 | 5.99849 | 22867 ft | 411 kts | 342° |
| 2026-05-06 09:04 | 50.12675 | 5.98235 | 23390 ft | 412 kts | 335° |
| 2026-05-06 09:04 | 50.15287 | 5.96373 | 23804 ft | 415 kts | 334° |
| 2026-05-06 09:04 | 50.17922 | 5.94548 | 23812 ft | 412 kts | 337° |
| 2026-05-06 09:04 | 50.20603 | 5.93010 | 23800 ft | 410 kts | 339° |
| 2026-05-06 09:05 | 50.23289 | 5.91527 | 23808 ft | 409 kts | 339° |
| 2026-05-06 09:05 | 50.25965 | 5.90022 | 23815 ft | 409 kts | 339° |
| 2026-05-06 09:05 | 50.28637 | 5.88492 | 23809 ft | 409 kts | 339° |
| 2026-05-06 09:05 | 50.31271 | 5.86973 | 23813 ft | 409 kts | 339° |
| 2026-05-06 09:06 | 50.33938 | 5.85426 | 23811 ft | 409 kts | 339° |
| 2026-05-06 09:06 | 50.36603 | 5.83878 | 23818 ft | 409 kts | 339° |
| 2026-05-06 09:06 | 50.39269 | 5.82325 | 23819 ft | 409 kts | 339° |
| 2026-05-06 09:06 | 50.41934 | 5.80771 | 23825 ft | 408 kts | 339° |
| 2026-05-06 09:07 | 50.44595 | 5.79219 | 23836 ft | 408 kts | 339° |
| 2026-05-06 09:07 | 50.47252 | 5.77671 | 23843 ft | 408 kts | 340° |
| 2026-05-06 09:07 | 50.49911 | 5.76116 | 23827 ft | 406 kts | 340° |
| 2026-05-06 09:07 | 50.52554 | 5.74568 | 23821 ft | 406 kts | 340° |
| 2026-05-06 09:08 | 50.55196 | 5.73018 | 23826 ft | 405 kts | 340° |
| 2026-05-06 09:08 | 50.57836 | 5.71469 | 23827 ft | 405 kts | 340° |
| 2026-05-06 09:08 | 50.60484 | 5.69966 | 23831 ft | 405 kts | 342° |
| 2026-05-06 09:08 | 50.63184 | 5.68714 | 23832 ft | 404 kts | 344° |
| 2026-05-06 09:09 | 50.65794 | 5.67069 | 23830 ft | 404 kts | 330° |
| 2026-05-06 09:09 | 50.67968 | 5.64291 | 23836 ft | 404 kts | 311° |
| 2026-05-06 09:09 | 50.69452 | 5.60552 | 23838 ft | 404 kts | 292° |
| 2026-05-06 09:09 | 50.70373 | 5.56373 | 23860 ft | 404 kts | 288° |
| 2026-05-06 09:10 | 50.71210 | 5.52139 | 23812 ft | 405 kts | 287° |
| 2026-05-06 09:10 | 50.72034 | 5.47897 | 23826 ft | 404 kts | 287° |
| 2026-05-06 09:10 | 50.72869 | 5.43661 | 23825 ft | 404 kts | 287° |
| 2026-05-06 09:10 | 50.73713 | 5.39427 | 23829 ft | 404 kts | 288° |
| 2026-05-06 09:11 | 50.74558 | 5.35193 | 23830 ft | 404 kts | 288° |
| 2026-05-06 09:11 | 50.75402 | 5.30957 | 23832 ft | 404 kts | 288° |
| 2026-05-06 09:11 | 50.76242 | 5.26732 | 23830 ft | 404 kts | 288° |
| 2026-05-06 09:11 | 50.77083 | 5.22490 | 23831 ft | 404 kts | 288° |
| 2026-05-06 09:12 | 50.77920 | 5.18251 | 23838 ft | 404 kts | 287° |
| 2026-05-06 09:12 | 50.78758 | 5.14005 | 23831 ft | 404 kts | 287° |
| 2026-05-06 09:12 | 50.79592 | 5.09765 | 23836 ft | 404 kts | 287° |
| 2026-05-06 09:12 | 50.80422 | 5.05536 | 23843 ft | 404 kts | 287° |
| 2026-05-06 09:13 | 50.81240 | 5.01336 | 23840 ft | 404 kts | 287° |
| 2026-05-06 09:13 | 50.82051 | 4.97087 | 23850 ft | 404 kts | 287° |
| 2026-05-06 09:13 | 50.82862 | 4.92824 | 23851 ft | 404 kts | 287° |
| 2026-05-06 09:13 | 50.83669 | 4.88575 | 23847 ft | 404 kts | 287° |
| 2026-05-06 09:14 | 50.84478 | 4.84324 | 23853 ft | 404 kts | 287° |
| 2026-05-06 09:14 | 50.85286 | 4.80065 | 23854 ft | 404 kts | 287° |
| 2026-05-06 09:14 | 50.86094 | 4.75799 | 23853 ft | 404 kts | 287° |
| 2026-05-06 09:14 | 50.86900 | 4.71533 | 23853 ft | 404 kts | 286° |
| 2026-05-06 09:15 | 50.87701 | 4.67282 | 23856 ft | 404 kts | 286° |
| 2026-05-06 09:15 | 50.88502 | 4.63026 | 23858 ft | 403 kts | 286° |
| 2026-05-06 09:15 | 50.89300 | 4.58775 | 23857 ft | 403 kts | 286° |
| 2026-05-06 09:15 | 50.90156 | 4.54533 | 23864 ft | 404 kts | 292° |
| 2026-05-06 09:16 | 50.91455 | 4.50587 | 23862 ft | 404 kts | 300° |
| 2026-05-06 09:16 | 50.92910 | 4.46774 | 23865 ft | 405 kts | 301° |
| 2026-05-06 09:16 | 50.94395 | 4.42981 | 23854 ft | 405 kts | 302° |
| 2026-05-06 09:16 | 50.95876 | 4.39191 | 23856 ft | 405 kts | 301° |
| 2026-05-06 09:17 | 50.97356 | 4.35385 | 23856 ft | 405 kts | 301° |
| 2026-05-06 09:17 | 50.98808 | 4.31631 | 23857 ft | 405 kts | 301° |
| 2026-05-06 09:17 | 51.00278 | 4.27818 | 23860 ft | 405 kts | 301° |
| 2026-05-06 09:17 | 51.01749 | 4.24000 | 23856 ft | 405 kts | 301° |
| 2026-05-06 09:18 | 51.03216 | 4.20181 | 23857 ft | 405 kts | 301° |
| 2026-05-06 09:18 | 51.04681 | 4.16364 | 23871 ft | 405 kts | 301° |
| 2026-05-06 09:18 | 51.06145 | 4.12542 | 23870 ft | 405 kts | 301° |
| 2026-05-06 09:18 | 51.07609 | 4.08717 | 23873 ft | 404 kts | 301° |
| 2026-05-06 09:19 | 51.09113 | 4.04952 | 23877 ft | 404 kts | 307° |
| 2026-05-06 09:19 | 51.11073 | 4.01765 | 23876 ft | 404 kts | 321° |
| 2026-05-06 09:19 | 51.13298 | 3.99049 | 23889 ft | 404 kts | 323° |
| 2026-05-06 09:19 | 51.15564 | 3.96401 | 23859 ft | 404 kts | 323° |
| 2026-05-06 09:20 | 51.17831 | 3.93758 | 23866 ft | 403 kts | 323° |
| 2026-05-06 09:20 | 51.20085 | 3.91103 | 23868 ft | 403 kts | 323° |
| 2026-05-06 09:20 | 51.22356 | 3.88498 | 23872 ft | 403 kts | 329° |
| 2026-05-06 09:20 | 51.24971 | 3.86955 | 23891 ft | 404 kts | 350° |
| 2026-05-06 09:21 | 51.26831 | 3.86724 | 23903 ft | 405 kts | 358° |
| 2026-05-06 09:21 | 51.29673 | 3.86658 | 23250 ft | 413 kts | 359° |
| 2026-05-06 09:21 | 51.32559 | 3.86656 | 22023 ft | 416 kts | 359° |
| 2026-05-06 09:21 | 51.35417 | 3.86637 | 21466 ft | 403 kts | 359° |
| 2026-05-06 09:22 | 51.38192 | 3.86595 | 20873 ft | 393 kts | 359° |
| 2026-05-06 09:22 | 51.40885 | 3.86543 | 20375 ft | 382 kts | 359° |
| 2026-05-06 09:22 | 51.43507 | 3.86485 | 19861 ft | 372 kts | 359° |
| 2026-05-06 09:22 | 51.46067 | 3.86427 | 19379 ft | 366 kts | 359° |
| 2026-05-06 09:23 | 51.48603 | 3.86368 | 18898 ft | 364 kts | 359° |
| 2026-05-06 09:23 | 51.51138 | 3.86308 | 18406 ft | 364 kts | 359° |
| 2026-05-06 09:23 | 51.53663 | 3.86251 | 17895 ft | 361 kts | 359° |
| 2026-05-06 09:23 | 51.56161 | 3.86193 | 17461 ft | 358 kts | 359° |
| 2026-05-06 09:24 | 51.58648 | 3.86137 | 16965 ft | 356 kts | 359° |
| 2026-05-06 09:24 | 51.61117 | 3.86078 | 16503 ft | 354 kts | 359° |
| 2026-05-06 09:24 | 51.63570 | 3.86024 | 16038 ft | 352 kts | 359° |
| 2026-05-06 09:24 | 51.66015 | 3.85967 | 15570 ft | 350 kts | 359° |
| 2026-05-06 09:25 | 51.68408 | 3.85911 | 15116 ft | 348 kts | 359° |
| 2026-05-06 09:25 | 51.70854 | 3.85881 | 14581 ft | 345 kts | 3° |
| 2026-05-06 09:25 | 51.73129 | 3.86894 | 14112 ft | 338 kts | 29° |
| 2026-05-06 09:25 | 51.74973 | 3.89136 | 13737 ft | 328 kts | 41° |
| 2026-05-06 09:26 | 51.76597 | 3.91687 | 13256 ft | 322 kts | 44° |
| 2026-05-06 09:26 | 51.78152 | 3.94151 | 12885 ft | 314 kts | 43° |
| 2026-05-06 09:26 | 51.79753 | 3.96564 | 12469 ft | 307 kts | 41° |
| 2026-05-06 09:26 | 51.81324 | 3.98860 | 12058 ft | 302 kts | 41° |
| 2026-05-06 09:27 | 51.82855 | 4.01077 | 11675 ft | 297 kts | 40° |
| 2026-05-06 09:27 | 51.84386 | 4.03288 | 11285 ft | 293 kts | 40° |
| 2026-05-06 09:27 | 51.85894 | 4.05470 | 10906 ft | 289 kts | 40° |
| 2026-05-06 09:27 | 51.87382 | 4.07626 | 10531 ft | 286 kts | 40° |
| 2026-05-06 09:28 | 51.88855 | 4.09760 | 10180 ft | 283 kts | 40° |
| 2026-05-06 09:28 | 51.90312 | 4.11848 | 10015 ft | 277 kts | 36° |
| 2026-05-06 09:28 | 51.92057 | 4.13080 | 9847 ft | 277 kts | 5° |
| 2026-05-06 09:28 | 51.93984 | 4.13047 | 9794 ft | 277 kts | 356° |
| 2026-05-06 09:29 | 51.95915 | 4.12816 | 9735 ft | 279 kts | 355° |
| 2026-05-06 09:29 | 51.97849 | 4.12573 | 9701 ft | 279 kts | 355° |
| 2026-05-06 09:29 | 51.99782 | 4.12347 | 9638 ft | 279 kts | 355° |
| 2026-05-06 09:29 | 52.01706 | 4.12137 | 9621 ft | 279 kts | 355° |
| 2026-05-06 09:30 | 52.03656 | 4.11926 | 9594 ft | 277 kts | 355° |
| 2026-05-06 09:30 | 52.05587 | 4.11721 | 9506 ft | 280 kts | 356° |
| 2026-05-06 09:30 | 52.07472 | 4.12213 | 9219 ft | 273 kts | 20° |
| 2026-05-06 09:30 | 52.09177 | 4.13441 | 8995 ft | 265 kts | 24° |
| 2026-05-06 09:31 | 52.10812 | 4.14721 | 8610 ft | 264 kts | 25° |
| 2026-05-06 09:31 | 52.12462 | 4.16019 | 8224 ft | 263 kts | 25° |
| 2026-05-06 09:31 | 52.14106 | 4.17288 | 7891 ft | 260 kts | 24° |
| 2026-05-06 09:31 | 52.15757 | 4.18543 | 7553 ft | 262 kts | 24° |
| 2026-05-06 09:32 | 52.17405 | 4.19792 | 7189 ft | 260 kts | 24° |
| 2026-05-06 09:32 | 52.19037 | 4.21025 | 6856 ft | 258 kts | 24° |
| 2026-05-06 09:32 | 52.20554 | 4.22521 | 6493 ft | 256 kts | 45° |
| 2026-05-06 09:32 | 52.21466 | 4.24976 | 6215 ft | 253 kts | 68° |
| 2026-05-06 09:33 | 52.21977 | 4.27691 | 5851 ft | 252 kts | 73° |
| 2026-05-06 09:33 | 52.22454 | 4.30430 | 5516 ft | 249 kts | 71° |
| 2026-05-06 09:33 | 52.22985 | 4.33082 | 5181 ft | 243 kts | 69° |
| 2026-05-06 09:33 | 52.23498 | 4.35675 | 4862 ft | 238 kts | 78° |
| 2026-05-06 09:34 | 52.23309 | 4.38321 | 4575 ft | 236 kts | 106° |
| 2026-05-06 09:34 | 52.22644 | 4.40736 | 4237 ft | 232 kts | 114° |
| 2026-05-06 09:34 | 52.21907 | 4.43021 | 3916 ft | 222 kts | 113° |
| 2026-05-06 09:34 | 52.21232 | 4.45186 | 3669 ft | 210 kts | 111° |
| 2026-05-06 09:35 | 52.20869 | 4.47440 | 3380 ft | 205 kts | 90° |
| 2026-05-06 09:35 | 52.20824 | 4.49735 | 3120 ft | 202 kts | 88° |
| 2026-05-06 09:35 | 52.20830 | 4.51971 | 2712 ft | 190 kts | 81° |
| 2026-05-06 09:35 | 52.21291 | 4.53874 | 2389 ft | 174 kts | 56° |
| 2026-05-06 09:36 | 52.21905 | 4.55476 | 2768 ft | 157 kts | 57° |
| 2026-05-06 09:36 | 52.22544 | 4.57163 | 2779 ft | 179 kts | 57° |
| 2026-05-06 09:36 | 52.23204 | 4.58877 | 2574 ft | 176 kts | 57° |
| 2026-05-06 09:36 | 52.23826 | 4.60532 | 2078 ft | 169 kts | 58° |
| 2026-05-06 09:37 | 52.24395 | 4.62151 | 1751 ft | 152 kts | 58° |
| 2026-05-06 09:37 | 52.24910 | 4.63475 | 1528 ft | 127 kts | 54° |
| 2026-05-06 09:37 | 52.25386 | 4.64633 | 1212 ft | 119 kts | 54° |
| 2026-05-06 09:37 | 52.25822 | 4.65704 | 1013 ft | 108 kts | 53° |
| 2026-05-06 09:38 | 52.26244 | 4.66741 | 874 ft | 111 kts | 54° |
| 2026-05-06 09:38 | 52.26679 | 4.67809 | 760 ft | 117 kts | 55° |
| 2026-05-06 09:38 | 52.27084 | 4.68906 | 626 ft | 115 kts | 56° |
| 2026-05-06 09:38 | 52.27502 | 4.70050 | 460 ft | 119 kts | 57° |
| 2026-05-06 09:39 | 52.27936 | 4.71179 | 316 ft | 115 kts | 53° |
| 2026-05-06 09:39 | 52.28367 | 4.72291 | 175 ft | 116 kts | 54° |
| 2026-05-06 09:39 | 52.28800 | 4.73403 | 47 ft | 117 kts | 57° |
| 2026-05-06 09:39 | 52.29200 | 4.74469 | -2 ft | 95 kts | 57° |
| 2026-05-06 09:40 | 52.29472 | 4.75183 | -5 ft | 57 kts | 60° |
| 2026-05-06 09:40 | 52.29639 | 4.75609 | -3 ft | 38 kts | 54° |
| 2026-05-06 09:40 | 52.29880 | 4.75888 | -4 ft | 12 kts | 28° |
| 2026-05-06 09:41 | 52.29957 | 4.75955 | -3 ft | 13 kts | 27° |
| 2026-05-06 09:41 | 52.30029 | 4.75934 | -3 ft | 12 kts | 310° |
| 2026-05-06 09:41 | 52.30020 | 4.75805 | -3 ft | 13 kts | 239° |
| 2026-05-06 09:41 | 52.29987 | 4.75688 | -3 ft | 6 kts | 282° |
| 2026-05-06 09:42 | 52.30013 | 4.75646 | -3 ft | 7 kts | 324° |
| 2026-05-06 09:42 | 52.30040 | 4.75632 | -3 ft | 3 kts | 17° |
| 2026-05-06 09:42 | 52.30057 | 4.75666 | -3 ft | 5 kts | 59° |
| 2026-05-06 09:42 | 52.30063 | 4.75683 | -3 ft | 0 kts | 59° |